sensor_id;sensor_type;location;lat;lon;timestamp;P1;durP1;ratioP1;P2;durP2;ratioP2
28427;SDS011;15662;49.128;8.520;2023-08-12T12:28:24;1.80;;;1.70;;
28427;SDS011;15662;49.128;8.520;2023-08-12T12:30:52;1.90;;;1.80;;
28427;SDS011;15662;49.128;8.520;2023-08-12T12:33:19;2.22;;;2.05;;
28427;SDS011;15662;49.128;8.520;2023-08-12T12:35:47;2.20;;;2.00;;
28427;SDS011;15662;49.128;8.520;2023-08-12T12:38:25;1.95;;;1.85;;
28427;SDS011;15662;49.128;8.520;2023-08-12T12:40:53;1.92;;;1.83;;
28427;SDS011;15662;49.128;8.520;2023-08-12T12:43:21;3.15;;;2.03;;
28427;SDS011;15662;49.128;8.520;2023-08-12T12:45:49;2.83;;;1.95;;
28427;SDS011;15662;49.128;8.520;2023-08-12T12:48:17;2.20;;;2.10;;
28427;SDS011;15662;49.128;8.520;2023-08-12T12:50:45;2.35;;;2.00;;
28427;SDS011;15662;49.128;8.520;2023-08-12T12:53:12;2.45;;;1.90;;
28427;SDS011;15662;49.128;8.520;2023-08-12T12:55:41;1.80;;;1.70;;
28427;SDS011;15662;49.128;8.520;2023-08-12T12:58:08;2.42;;;2.22;;
28427;SDS011;15662;49.128;8.520;2023-08-12T13:00:38;2.65;;;2.10;;
28427;SDS011;15662;49.128;8.520;2023-08-12T13:03:06;2.28;;;2.10;;
28427;SDS011;15662;49.128;8.520;2023-08-12T13:05:34;2.45;;;2.25;;
28427;SDS011;15662;49.128;8.520;2023-08-12T13:08:02;2.50;;;2.10;;
28427;SDS011;15662;49.128;8.520;2023-08-12T13:10:30;2.53;;;2.10;;
28427;SDS011;15662;49.128;8.520;2023-08-12T13:12:58;3.63;;;2.60;;
28427;SDS011;15662;49.128;8.520;2023-08-12T13:15:26;2.55;;;2.45;;
28427;SDS011;15662;49.128;8.520;2023-08-12T13:17:54;2.72;;;2.53;;
28427;SDS011;15662;49.128;8.520;2023-08-12T13:20:21;4.38;;;2.78;;
28427;SDS011;15662;49.128;8.520;2023-08-12T13:22:50;2.50;;;2.30;;
28427;SDS011;15662;49.128;8.520;2023-08-12T13:25:18;2.40;;;2.30;;
28427;SDS011;15662;49.128;8.520;2023-08-12T13:27:46;2.47;;;2.33;;
28427;SDS011;15662;49.128;8.520;2023-08-12T13:30:14;2.90;;;2.63;;
28427;SDS011;15662;49.128;8.520;2023-08-12T13:32:42;3.92;;;2.67;;
28427;SDS011;15662;49.128;8.520;2023-08-12T13:35:10;3.75;;;2.42;;
28427;SDS011;15662;49.128;8.520;2023-08-12T13:37:38;2.72;;;2.38;;
28427;SDS011;15662;49.128;8.520;2023-08-12T13:40:06;2.55;;;2.35;;
28427;SDS011;15662;49.128;8.520;2023-08-12T13:42:34;2.42;;;2.22;;
28427;SDS011;15662;49.128;8.520;2023-08-12T13:45:02;2.60;;;2.40;;
28427;SDS011;15662;49.128;8.520;2023-08-12T13:47:33;2.42;;;2.33;;
28427;SDS011;15662;49.128;8.520;2023-08-12T13:50:01;2.88;;;2.72;;
28427;SDS011;15662;49.128;8.520;2023-08-12T13:52:30;3.55;;;2.83;;
28427;SDS011;15662;49.128;8.520;2023-08-12T13:54:58;3.13;;;2.80;;
28427;SDS011;15662;49.128;8.520;2023-08-12T13:57:26;3.05;;;2.80;;
28427;SDS011;15662;49.128;8.520;2023-08-12T13:59:54;2.97;;;2.78;;
28427;SDS011;15662;49.128;8.520;2023-08-12T14:02:22;3.20;;;2.70;;
28427;SDS011;15662;49.128;8.520;2023-08-12T14:04:50;3.20;;;2.85;;
28427;SDS011;15662;49.128;8.520;2023-08-12T14:07:18;2.92;;;2.72;;
28427;SDS011;15662;49.128;8.520;2023-08-12T14:09:47;3.35;;;3.05;;
28427;SDS011;15662;49.128;8.520;2023-08-12T14:12:15;2.80;;;2.60;;
28427;SDS011;15662;49.128;8.520;2023-08-12T14:14:43;3.03;;;2.83;;
28427;SDS011;15662;49.128;8.520;2023-08-12T14:17:12;5.03;;;3.20;;
28427;SDS011;15662;49.128;8.520;2023-08-12T14:19:43;2.97;;;2.78;;
28427;SDS011;15662;49.128;8.520;2023-08-12T14:22:14;3.25;;;3.00;;
28427;SDS011;15662;49.128;8.520;2023-08-12T14:24:42;3.28;;;3.08;;
28427;SDS011;15662;49.128;8.520;2023-08-12T14:27:11;3.63;;;3.33;;
28427;SDS011;15662;49.128;8.520;2023-08-12T14:29:41;3.40;;;3.10;;
28427;SDS011;15662;49.128;8.520;2023-08-12T14:32:09;3.10;;;2.90;;
28427;SDS011;15662;49.128;8.520;2023-08-12T14:34:37;3.50;;;3.20;;
28427;SDS011;15662;49.128;8.520;2023-08-12T14:37:05;3.35;;;3.08;;
28427;SDS011;15662;49.128;8.520;2023-08-12T14:39:35;3.58;;;2.78;;
28427;SDS011;15662;49.128;8.520;2023-08-12T14:42:03;3.03;;;2.67;;
28427;SDS011;15662;49.128;8.520;2023-08-12T14:44:31;7.22;;;2.88;;
28427;SDS011;15662;49.128;8.520;2023-08-12T14:47:03;9.38;;;2.97;;
28427;SDS011;15662;49.128;8.520;2023-08-12T14:49:31;7.60;;;2.80;;
28427;SDS011;15662;49.128;8.520;2023-08-12T14:51:59;3.15;;;2.80;;
28427;SDS011;15662;49.128;8.520;2023-08-12T14:54:27;5.82;;;3.10;;
28427;SDS011;15662;49.128;8.520;2023-08-12T14:56:54;4.22;;;3.10;;
28427;SDS011;15662;49.128;8.520;2023-08-12T14:59:22;5.20;;;3.33;;
28427;SDS011;15662;49.128;8.520;2023-08-12T15:01:50;6.75;;;3.90;;
28427;SDS011;15662;49.128;8.520;2023-08-12T15:04:18;4.18;;;3.28;;
28427;SDS011;15662;49.128;8.520;2023-08-12T15:06:46;4.68;;;3.40;;
28427;SDS011;15662;49.128;8.520;2023-08-12T15:09:14;4.07;;;3.15;;
28427;SDS011;15662;49.128;8.520;2023-08-12T15:11:42;3.63;;;3.17;;
28427;SDS011;15662;49.128;8.520;2023-08-12T15:14:09;4.20;;;3.83;;
28427;SDS011;15662;49.128;8.520;2023-08-12T15:16:38;5.15;;;4.75;;
28427;SDS011;15662;49.128;8.520;2023-08-12T15:19:06;5.32;;;4.03;;
28427;SDS011;15662;49.128;8.520;2023-08-12T15:21:34;4.45;;;3.90;;
28427;SDS011;15662;49.128;8.520;2023-08-12T15:24:02;3.70;;;3.40;;
28427;SDS011;15662;49.128;8.520;2023-08-12T15:26:31;3.92;;;3.53;;
28427;SDS011;15662;49.128;8.520;2023-08-12T15:28:59;5.60;;;3.47;;
28427;SDS011;15662;49.128;8.520;2023-08-12T15:31:27;4.70;;;3.60;;
28427;SDS011;15662;49.128;8.520;2023-08-12T15:33:55;3.70;;;3.40;;
28427;SDS011;15662;49.128;8.520;2023-08-12T15:36:23;4.43;;;4.03;;
28427;SDS011;15662;49.128;8.520;2023-08-12T15:38:51;4.85;;;3.45;;
28427;SDS011;15662;49.128;8.520;2023-08-12T15:41:18;4.20;;;3.42;;
28427;SDS011;15662;49.128;8.520;2023-08-12T15:43:48;3.72;;;3.42;;
28427;SDS011;15662;49.128;8.520;2023-08-12T15:46:16;4.47;;;3.50;;
28427;SDS011;15662;49.128;8.520;2023-08-12T15:48:44;4.25;;;3.33;;
28427;SDS011;15662;49.128;8.520;2023-08-12T15:51:12;5.43;;;3.28;;
28427;SDS011;15662;49.128;8.520;2023-08-12T15:53:40;4.32;;;3.08;;
28427;SDS011;15662;49.128;8.520;2023-08-12T15:56:08;4.28;;;2.53;;
28427;SDS011;15662;49.128;8.520;2023-08-12T15:58:36;3.53;;;2.85;;
28427;SDS011;15662;49.128;8.520;2023-08-12T16:01:03;2.95;;;2.72;;
28427;SDS011;15662;49.128;8.520;2023-08-12T16:03:33;3.88;;;2.70;;
28427;SDS011;15662;49.128;8.520;2023-08-12T16:06:02;3.22;;;2.88;;
28427;SDS011;15662;49.128;8.520;2023-08-12T16:08:30;3.20;;;2.90;;
28427;SDS011;15662;49.128;8.520;2023-08-12T16:10:58;3.08;;;2.78;;
28427;SDS011;15662;49.128;8.520;2023-08-12T16:13:26;5.05;;;3.40;;
28427;SDS011;15662;49.128;8.520;2023-08-12T16:15:54;3.42;;;3.13;;
28427;SDS011;15662;49.128;8.520;2023-08-12T16:18:22;3.47;;;2.72;;
28427;SDS011;15662;49.128;8.520;2023-08-12T16:20:50;2.75;;;2.53;;
28427;SDS011;15662;49.128;8.520;2023-08-12T16:23:19;3.28;;;2.95;;
28427;SDS011;15662;49.128;8.520;2023-08-12T16:25:47;3.72;;;3.10;;
28427;SDS011;15662;49.128;8.520;2023-08-12T16:28:15;3.22;;;2.75;;
28427;SDS011;15662;49.128;8.520;2023-08-12T16:30:43;4.80;;;3.38;;
28427;SDS011;15662;49.128;8.520;2023-08-12T16:33:11;3.88;;;2.75;;
28427;SDS011;15662;49.128;8.520;2023-08-12T16:35:39;3.58;;;2.70;;
28427;SDS011;15662;49.128;8.520;2023-08-12T16:38:06;4.43;;;2.70;;
28427;SDS011;15662;49.128;8.520;2023-08-12T16:40:35;2.97;;;2.65;;
28427;SDS011;15662;49.128;8.520;2023-08-12T16:43:04;2.83;;;2.30;;
28427;SDS011;15662;49.128;8.520;2023-08-12T16:45:32;2.47;;;2.10;;
28427;SDS011;15662;49.128;8.520;2023-08-12T16:48:00;3.17;;;2.88;;
28427;SDS011;15662;49.128;8.520;2023-08-12T16:50:28;3.58;;;3.17;;
28427;SDS011;15662;49.128;8.520;2023-08-12T16:52:56;4.93;;;3.70;;
28427;SDS011;15662;49.128;8.520;2023-08-12T16:55:24;3.15;;;2.85;;
28427;SDS011;15662;49.128;8.520;2023-08-12T16:57:52;3.00;;;2.65;;
28427;SDS011;15662;49.128;8.520;2023-08-12T17:00:19;4.57;;;2.72;;
28427;SDS011;15662;49.128;8.520;2023-08-12T17:02:47;3.28;;;2.20;;
28427;SDS011;15662;49.128;8.520;2023-08-12T17:05:15;2.67;;;2.00;;
28427;SDS011;15662;49.128;8.520;2023-08-12T17:07:43;2.00;;;1.90;;
28427;SDS011;15662;49.128;8.520;2023-08-12T17:10:11;1.92;;;1.70;;
28427;SDS011;15662;49.128;8.520;2023-08-12T17:12:39;3.33;;;2.05;;
28427;SDS011;15662;49.128;8.520;2023-08-12T17:15:07;2.13;;;1.75;;
28427;SDS011;15662;49.128;8.520;2023-08-12T17:17:36;1.95;;;1.70;;
28427;SDS011;15662;49.128;8.520;2023-08-12T17:20:04;1.73;;;1.63;;
28427;SDS011;15662;49.128;8.520;2023-08-12T17:22:34;2.70;;;2.20;;
28427;SDS011;15662;49.128;8.520;2023-08-12T17:25:02;2.83;;;2.30;;
28427;SDS011;15662;49.128;8.520;2023-08-12T17:30:01;2.13;;;2.00;;
28427;SDS011;15662;49.128;8.520;2023-08-12T17:32:29;2.70;;;2.28;;
28427;SDS011;15662;49.128;8.520;2023-08-12T17:34:57;3.00;;;2.70;;
28427;SDS011;15662;49.128;8.520;2023-08-12T17:37:25;3.03;;;2.60;;
28427;SDS011;15662;49.128;8.520;2023-08-12T17:39:52;3.30;;;2.50;;
28427;SDS011;15662;49.128;8.520;2023-08-12T17:42:21;3.05;;;2.75;;
28427;SDS011;15662;49.128;8.520;2023-08-12T17:47:20;2.88;;;2.65;;
28427;SDS011;15662;49.128;8.520;2023-08-12T17:49:48;3.78;;;3.10;;
28427;SDS011;15662;49.128;8.520;2023-08-12T17:52:16;3.72;;;2.78;;
28427;SDS011;15662;49.128;8.520;2023-08-12T17:54:44;3.88;;;2.80;;
28427;SDS011;15662;49.128;8.520;2023-08-12T17:57:13;3.30;;;2.97;;
28427;SDS011;15662;49.128;8.520;2023-08-12T17:59:41;3.42;;;2.78;;
28427;SDS011;15662;49.128;8.520;2023-08-12T18:02:09;2.83;;;2.63;;
28427;SDS011;15662;49.128;8.520;2023-08-12T18:04:38;7.45;;;2.92;;
28427;SDS011;15662;49.128;8.520;2023-08-12T18:07:05;3.47;;;2.60;;
28427;SDS011;15662;49.128;8.520;2023-08-12T18:09:33;2.85;;;2.60;;
28427;SDS011;15662;49.128;8.520;2023-08-12T18:12:01;3.10;;;2.80;;
28427;SDS011;15662;49.128;8.520;2023-08-12T18:14:29;3.38;;;2.90;;
28427;SDS011;15662;49.128;8.520;2023-08-12T18:16:57;3.13;;;2.85;;
28427;SDS011;15662;49.128;8.520;2023-08-12T18:19:25;3.55;;;2.85;;
28427;SDS011;15662;49.128;8.520;2023-08-12T18:21:53;3.72;;;2.78;;
28427;SDS011;15662;49.128;8.520;2023-08-12T18:24:21;3.10;;;2.80;;
28427;SDS011;15662;49.128;8.520;2023-08-12T18:26:48;3.03;;;2.72;;
28427;SDS011;15662;49.128;8.520;2023-08-12T18:29:16;2.70;;;2.50;;
28427;SDS011;15662;49.128;8.520;2023-08-12T18:31:44;3.15;;;2.40;;
28427;SDS011;15662;49.128;8.520;2023-08-12T18:34:12;3.95;;;2.53;;
28427;SDS011;15662;49.128;8.520;2023-08-12T18:36:40;2.50;;;2.30;;
28427;SDS011;15662;49.128;8.520;2023-08-12T18:39:08;3.38;;;2.78;;
28427;SDS011;15662;49.128;8.520;2023-08-12T18:41:36;3.45;;;2.72;;
28427;SDS011;15662;49.128;8.520;2023-08-12T18:44:04;2.60;;;2.40;;
28427;SDS011;15662;49.128;8.520;2023-08-12T18:46:32;3.28;;;2.60;;
28427;SDS011;15662;49.128;8.520;2023-08-12T18:49:00;3.55;;;2.53;;
28427;SDS011;15662;49.128;8.520;2023-08-12T18:51:28;2.42;;;2.22;;
28427;SDS011;15662;49.128;8.520;2023-08-12T18:53:56;3.40;;;2.45;;
28427;SDS011;15662;49.128;8.520;2023-08-12T18:56:26;3.65;;;2.45;;
28427;SDS011;15662;49.128;8.520;2023-08-12T18:58:54;3.25;;;2.70;;
28427;SDS011;15662;49.128;8.520;2023-08-12T19:01:22;2.55;;;2.35;;
28427;SDS011;15662;49.128;8.520;2023-08-12T19:03:50;2.70;;;2.50;;
28427;SDS011;15662;49.128;8.520;2023-08-12T19:06:18;2.88;;;2.40;;
28427;SDS011;15662;49.128;8.520;2023-08-12T19:08:46;2.85;;;2.50;;
28427;SDS011;15662;49.128;8.520;2023-08-12T19:11:14;3.35;;;2.45;;
28427;SDS011;15662;49.128;8.520;2023-08-12T19:13:47;2.92;;;2.45;;
28427;SDS011;15662;49.128;8.520;2023-08-12T19:16:15;2.95;;;2.40;;
28427;SDS011;15662;49.128;8.520;2023-08-12T19:18:43;3.45;;;2.65;;
28427;SDS011;15662;49.128;8.520;2023-08-12T19:21:11;2.63;;;2.40;;
28427;SDS011;15662;49.128;8.520;2023-08-12T19:23:38;3.47;;;2.88;;
28427;SDS011;15662;49.128;8.520;2023-08-12T19:26:06;3.83;;;2.90;;
28427;SDS011;15662;49.128;8.520;2023-08-12T19:28:34;3.92;;;2.80;;
28427;SDS011;15662;49.128;8.520;2023-08-12T19:31:02;3.00;;;2.70;;
28427;SDS011;15662;49.128;8.520;2023-08-12T19:33:29;4.07;;;2.70;;
28427;SDS011;15662;49.128;8.520;2023-08-12T19:35:57;3.53;;;2.95;;
28427;SDS011;15662;49.128;8.520;2023-08-12T19:38:25;3.03;;;2.72;;
28427;SDS011;15662;49.128;8.520;2023-08-12T19:40:53;2.42;;;2.28;;
28427;SDS011;15662;49.128;8.520;2023-08-12T19:43:21;3.05;;;2.80;;
28427;SDS011;15662;49.128;8.520;2023-08-12T19:45:49;3.13;;;2.75;;
28427;SDS011;15662;49.128;8.520;2023-08-12T19:48:17;3.15;;;2.70;;
28427;SDS011;15662;49.128;8.520;2023-08-12T19:50:44;3.53;;;2.67;;
28427;SDS011;15662;49.128;8.520;2023-08-12T19:53:14;3.30;;;2.90;;
28427;SDS011;15662;49.128;8.520;2023-08-12T19:55:41;2.92;;;2.70;;
28427;SDS011;15662;49.128;8.520;2023-08-12T19:58:09;2.63;;;2.33;;
28427;SDS011;15662;49.128;8.520;2023-08-12T20:00:38;2.53;;;2.33;;
28427;SDS011;15662;49.128;8.520;2023-08-12T20:03:07;2.80;;;2.60;;
28427;SDS011;15662;49.128;8.520;2023-08-12T20:05:35;3.03;;;2.75;;
28427;SDS011;15662;49.128;8.520;2023-08-12T20:08:03;3.83;;;2.60;;
28427;SDS011;15662;49.128;8.520;2023-08-12T20:10:32;2.70;;;2.50;;
28427;SDS011;15662;49.128;8.520;2023-08-12T20:13:00;3.75;;;2.80;;
28427;SDS011;15662;49.128;8.520;2023-08-12T20:15:28;2.75;;;2.55;;
28427;SDS011;15662;49.128;8.520;2023-08-12T20:17:57;3.85;;;2.70;;
28427;SDS011;15662;49.128;8.520;2023-08-12T20:20:25;3.03;;;2.70;;
28427;SDS011;15662;49.128;8.520;2023-08-12T20:22:53;3.47;;;3.00;;
28427;SDS011;15662;49.128;8.520;2023-08-12T20:25:33;2.72;;;2.50;;
28427;SDS011;15662;49.128;8.520;2023-08-12T20:28:03;3.00;;;2.63;;
28427;SDS011;15662;49.128;8.520;2023-08-12T20:30:32;4.93;;;3.08;;
28427;SDS011;15662;49.128;8.520;2023-08-12T20:33:01;2.95;;;2.75;;
28427;SDS011;15662;49.128;8.520;2023-08-12T20:35:30;5.30;;;3.10;;
28427;SDS011;15662;49.128;8.520;2023-08-12T20:37:58;3.03;;;2.70;;
28427;SDS011;15662;49.128;8.520;2023-08-12T20:40:26;3.65;;;2.53;;
28427;SDS011;15662;49.128;8.520;2023-08-12T20:42:54;3.25;;;2.95;;
28427;SDS011;15662;49.128;8.520;2023-08-12T20:45:22;2.58;;;2.38;;
28427;SDS011;15662;49.128;8.520;2023-08-12T20:47:50;2.75;;;2.55;;
28427;SDS011;15662;49.128;8.520;2023-08-12T20:50:18;2.95;;;2.70;;
28427;SDS011;15662;49.128;8.520;2023-08-12T20:52:46;2.88;;;2.60;;
28427;SDS011;15662;49.128;8.520;2023-08-12T20:55:14;2.88;;;2.60;;
28427;SDS011;15662;49.128;8.520;2023-08-12T20:57:42;3.60;;;2.83;;
28427;SDS011;15662;49.128;8.520;2023-08-12T21:00:10;3.22;;;2.53;;
28427;SDS011;15662;49.128;8.520;2023-08-12T21:02:41;2.95;;;2.65;;
28427;SDS011;15662;49.128;8.520;2023-08-12T21:05:14;3.05;;;2.75;;
28427;SDS011;15662;49.128;8.520;2023-08-12T21:07:41;3.08;;;2.55;;
28427;SDS011;15662;49.128;8.520;2023-08-12T21:10:10;3.20;;;2.55;;
28427;SDS011;15662;49.128;8.520;2023-08-12T21:12:38;3.35;;;2.50;;
28427;SDS011;15662;49.128;8.520;2023-08-12T21:15:06;3.67;;;2.80;;
28427;SDS011;15662;49.128;8.520;2023-08-12T21:17:34;3.80;;;3.00;;
28427;SDS011;15662;49.128;8.520;2023-08-12T21:20:02;2.88;;;2.50;;
28427;SDS011;15662;49.128;8.520;2023-08-12T21:22:31;3.70;;;3.00;;
28427;SDS011;15662;49.128;8.520;2023-08-12T21:24:59;3.53;;;3.22;;
28427;SDS011;15662;49.128;8.520;2023-08-12T21:27:27;3.65;;;3.30;;
28427;SDS011;15662;49.128;8.520;2023-08-12T21:29:55;3.90;;;3.08;;
28427;SDS011;15662;49.128;8.520;2023-08-12T21:32:23;2.90;;;2.70;;
28427;SDS011;15662;49.128;8.520;2023-08-12T21:34:50;2.92;;;2.60;;
28427;SDS011;15662;49.128;8.520;2023-08-12T21:37:18;3.88;;;2.65;;
28427;SDS011;15662;49.128;8.520;2023-08-12T21:39:46;3.97;;;3.00;;
28427;SDS011;15662;49.128;8.520;2023-08-12T21:42:14;2.63;;;2.45;;
28427;SDS011;15662;49.128;8.520;2023-08-12T21:44:42;2.97;;;2.72;;
28427;SDS011;15662;49.128;8.520;2023-08-12T21:47:10;3.88;;;2.75;;
28427;SDS011;15662;49.128;8.520;2023-08-12T21:49:38;2.40;;;2.20;;
28427;SDS011;15662;49.128;8.520;2023-08-12T21:52:06;3.28;;;2.50;;
28427;SDS011;15662;49.128;8.520;2023-08-12T21:54:34;5.00;;;2.63;;
28427;SDS011;15662;49.128;8.520;2023-08-12T21:57:02;3.33;;;2.83;;
28427;SDS011;15662;49.128;8.520;2023-08-12T21:59:29;3.78;;;2.83;;
28427;SDS011;15662;49.128;8.520;2023-08-12T22:02:00;3.95;;;2.70;;
28427;SDS011;15662;49.128;8.520;2023-08-12T22:04:31;5.00;;;2.78;;
28427;SDS011;15662;49.128;8.520;2023-08-12T22:07:00;2.47;;;2.28;;
28427;SDS011;15662;49.128;8.520;2023-08-12T22:09:28;4.15;;;2.80;;
28427;SDS011;15662;49.128;8.520;2023-08-12T22:12:00;2.85;;;2.65;;
28427;SDS011;15662;49.128;8.520;2023-08-12T22:14:28;3.65;;;2.50;;
28427;SDS011;15662;49.128;8.520;2023-08-12T22:16:56;3.10;;;2.80;;
28427;SDS011;15662;49.128;8.520;2023-08-12T22:19:25;4.15;;;2.65;;
28427;SDS011;15662;49.128;8.520;2023-08-12T22:21:53;2.83;;;2.63;;
28427;SDS011;15662;49.128;8.520;2023-08-12T22:24:31;2.80;;;2.60;;
28427;SDS011;15662;49.128;8.520;2023-08-12T22:26:59;2.83;;;2.30;;
28427;SDS011;15662;49.128;8.520;2023-08-12T22:29:27;2.47;;;2.28;;
28427;SDS011;15662;49.128;8.520;2023-08-12T22:31:55;3.65;;;2.40;;
28427;SDS011;15662;49.128;8.520;2023-08-12T22:34:22;3.60;;;2.20;;
28427;SDS011;15662;49.128;8.520;2023-08-12T22:36:50;3.08;;;2.70;;
28427;SDS011;15662;49.128;8.520;2023-08-12T22:39:18;2.70;;;2.50;;
28427;SDS011;15662;49.128;8.520;2023-08-12T22:41:49;2.83;;;2.40;;
28427;SDS011;15662;49.128;8.520;2023-08-12T22:44:17;3.70;;;2.80;;
28427;SDS011;15662;49.128;8.520;2023-08-12T22:46:44;3.42;;;2.28;;
28427;SDS011;15662;49.128;8.520;2023-08-12T22:49:12;2.63;;;2.42;;
28427;SDS011;15662;49.128;8.520;2023-08-12T22:51:41;3.85;;;2.50;;
28427;SDS011;15662;49.128;8.520;2023-08-12T22:54:09;3.22;;;2.50;;
28427;SDS011;15662;49.128;8.520;2023-08-12T22:56:37;2.92;;;2.55;;
28427;SDS011;15662;49.128;8.520;2023-08-12T22:59:04;3.80;;;2.53;;
28427;SDS011;15662;49.128;8.520;2023-08-12T23:01:32;3.08;;;2.60;;
28427;SDS011;15662;49.128;8.520;2023-08-12T23:04:00;3.72;;;2.50;;
28427;SDS011;15662;49.128;8.520;2023-08-12T23:06:28;3.45;;;2.60;;
28427;SDS011;15662;49.128;8.520;2023-08-12T23:08:56;3.20;;;2.50;;
28427;SDS011;15662;49.128;8.520;2023-08-12T23:11:24;3.88;;;2.80;;
28427;SDS011;15662;49.128;8.520;2023-08-12T23:13:52;5.65;;;3.13;;
28427;SDS011;15662;49.128;8.520;2023-08-12T23:16:20;3.20;;;2.90;;
28427;SDS011;15662;49.128;8.520;2023-08-12T23:18:48;2.70;;;2.50;;
28427;SDS011;15662;49.128;8.520;2023-08-12T23:21:16;2.70;;;2.50;;
28427;SDS011;15662;49.128;8.520;2023-08-12T23:23:44;4.32;;;2.05;;
28427;SDS011;15662;49.128;8.520;2023-08-12T23:26:11;1.40;;;1.40;;
28427;SDS011;15662;49.128;8.520;2023-08-12T23:28:39;1.42;;;1.42;;
28427;SDS011;15662;49.128;8.520;2023-08-12T23:31:07;1.70;;;1.60;;
28427;SDS011;15662;49.128;8.520;2023-08-12T23:33:35;1.77;;;1.67;;
28427;SDS011;15662;49.128;8.520;2023-08-12T23:36:03;1.52;;;1.42;;
28427;SDS011;15662;49.128;8.520;2023-08-12T23:38:31;1.80;;;1.70;;
28427;SDS011;15662;49.128;8.520;2023-08-12T23:40:59;1.98;;;1.88;;
28427;SDS011;15662;49.128;8.520;2023-08-12T23:43:27;4.35;;;2.20;;
28427;SDS011;15662;49.128;8.520;2023-08-12T23:45:58;2.40;;;2.10;;
28427;SDS011;15662;49.128;8.520;2023-08-12T23:48:27;2.17;;;2.03;;
28427;SDS011;15662;49.128;8.520;2023-08-12T23:50:55;2.60;;;2.08;;
28427;SDS011;15662;49.128;8.520;2023-08-12T23:53:23;2.78;;;2.58;;
28427;SDS011;15662;49.128;8.520;2023-08-12T23:55:51;3.13;;;2.83;;
28427;SDS011;15662;49.128;8.520;2023-08-12T23:58:19;2.80;;;2.60;;
